createdAt,value
2022-08-03T00:02:21.120Z,100715.56
2022-08-03T00:04:49.788Z,100715.16
2022-08-03T00:07:18.684Z,100711.81
2022-08-03T00:09:48.880Z,100715.00
2022-08-03T00:12:18.175Z,100714.56
2022-08-03T00:14:46.964Z,100719.75
2022-08-03T00:17:15.726Z,100709.25
2022-08-03T00:19:44.404Z,100707.59
2022-08-03T00:22:13.043Z,100711.22
2022-08-03T00:24:41.815Z,100715.69
2022-08-03T00:27:11.703Z,100714.13
2022-08-03T00:29:59.912Z,100726.44
2022-08-03T00:32:29.051Z,100719.75
2022-08-03T00:34:59.089Z,100721.66
2022-08-03T00:37:40.789Z,100723.38
2022-08-03T00:40:13.513Z,100727.00
2022-08-03T00:42:55.837Z,100724.75
2022-08-03T00:45:27.581Z,100721.66
2022-08-03T00:47:57.060Z,100718.06
2022-08-03T00:50:28.667Z,100715.28
2022-08-03T00:52:59.595Z,100715.28
2022-08-03T00:55:28.964Z,100721.97
2022-08-03T00:57:59.787Z,100730.91
2022-08-03T01:00:29.823Z,100725.06
2022-08-03T01:02:58.474Z,100722.84
2022-08-03T01:05:27.159Z,100733.31
2022-08-03T01:08:07.011Z,100726.19
2022-08-03T01:10:50.016Z,100727.00
2022-08-03T01:14:01.604Z,100725.59
2022-08-03T01:16:27.965Z,100726.28
2022-08-03T01:19:31.243Z,100721.50
2022-08-03T01:22:19.109Z,100719.69
2022-08-03T01:25:02.399Z,100715.50
2022-08-03T01:27:47.740Z,100720.66
2022-08-03T01:30:18.184Z,100724.69
2022-08-03T01:33:00.952Z,100718.22
2022-08-03T01:35:39.277Z,100723.69
2022-08-03T01:38:13.288Z,100716.09
2022-08-03T01:40:45.496Z,100719.19
2022-08-03T01:43:58.887Z,100716.09
2022-08-03T01:46:12.700Z,100723.31
2022-08-03T01:48:45.908Z,100726.28
2022-08-03T01:51:19.362Z,100723.50
2022-08-03T01:53:51.114Z,100718.59
2022-08-03T01:56:23.244Z,100712.09
2022-08-03T01:58:55.292Z,100707.34
2022-08-03T02:01:28.250Z,100709.88
2022-08-03T02:04:20.482Z,100703.69
2022-08-03T02:06:59.910Z,100709.84
2022-08-03T02:09:32.654Z,100704.13
2022-08-03T02:12:02.646Z,100710.00
2022-08-03T02:14:32.797Z,100705.19
2022-08-03T02:17:04.238Z,100698.63
2022-08-03T02:19:35.869Z,100699.00
2022-08-03T02:22:06.679Z,100705.44
2022-08-03T02:24:35.511Z,100701.34
2022-08-03T02:27:11.652Z,100701.34
2022-08-03T02:29:43.532Z,100695.91
2022-08-03T02:32:21.479Z,100700.25
2022-08-03T02:34:55.853Z,100702.06
2022-08-03T02:37:31.951Z,100704.44
2022-08-03T02:40:05.544Z,100700.13
2022-08-03T02:42:37.031Z,100703.16
2022-08-03T02:45:13.963Z,100712.81
2022-08-03T02:47:53.387Z,100705.94
2022-08-03T02:50:26.274Z,100710.66
2022-08-03T02:52:58.137Z,100712.75
2022-08-03T02:55:28.368Z,100711.75
2022-08-03T02:58:01.445Z,100713.44
2022-08-03T03:00:32.892Z,100715.53
2022-08-03T03:03:05.378Z,100712.88
2022-08-03T03:05:52.835Z,100714.69
2022-08-03T03:08:28.929Z,100705.63
2022-08-03T03:11:00.500Z,100714.56
2022-08-03T03:13:31.380Z,100716.22
2022-08-03T03:16:04.286Z,100724.56
2022-08-03T03:18:35.815Z,100723.75
2022-08-03T03:21:06.667Z,100730.59
2022-08-03T03:23:39.483Z,100728.41
2022-08-03T03:26:09.238Z,100722.69
2022-08-03T03:28:38.596Z,100719.78
2022-08-03T03:31:09.109Z,100723.00
2022-08-03T03:33:40.477Z,100719.41
2022-08-03T03:36:09.570Z,100727.09
2022-08-03T03:38:38.581Z,100732.53
2022-08-03T03:41:07.621Z,100724.44
2022-08-03T03:43:36.607Z,100729.50
2022-08-03T03:46:06.110Z,100712.19
2022-08-03T03:48:35.379Z,100725.66
2022-08-03T03:51:07.286Z,100730.19
2022-08-03T03:53:36.733Z,100730.41
2022-08-03T03:56:05.844Z,100723.91
2022-08-03T03:58:34.586Z,100734.97
2022-08-03T04:01:03.410Z,100728.81
2022-08-03T04:03:32.102Z,100740.13
2022-08-03T04:06:18.225Z,100739.03
2022-08-03T04:09:14.269Z,100743.78
2022-08-03T04:11:49.987Z,100740.72
2022-08-03T04:14:24.158Z,100752.78
2022-08-03T04:16:58.339Z,100744.69
2022-08-03T04:19:36.915Z,100748.53
2022-08-03T04:22:12.401Z,100755.09
2022-08-03T04:24:50.784Z,100758.88
2022-08-03T04:27:26.692Z,100751.47
2022-08-03T04:29:58.758Z,100766.59
2022-08-03T04:32:30.271Z,100764.06
2022-08-03T04:34:59.404Z,100769.66
2022-08-03T04:37:39.520Z,100770.91
2022-08-03T04:40:15.609Z,100771.00
2022-08-03T04:42:45.720Z,100777.75
2022-08-03T04:45:17.144Z,100784.91
2022-08-03T04:47:46.435Z,100778.63
2022-08-03T04:50:19.505Z,100780.69
2022-08-03T04:53:07.798Z,100781.25
2022-08-03T04:55:37.786Z,100781.97
2022-08-03T04:58:07.248Z,100780.00
2022-08-03T05:00:37.423Z,100777.19
2022-08-03T05:03:20.048Z,100780.13
2022-08-03T05:06:10.040Z,100786.53
2022-08-03T05:08:47.170Z,100776.31
2022-08-03T05:11:19.655Z,100783.34
2022-08-03T05:13:49.215Z,100786.63
2022-08-03T05:16:18.049Z,100791.59
2022-08-03T05:18:47.077Z,100795.50
2022-08-03T05:21:16.911Z,100799.91
2022-08-03T05:23:45.777Z,100794.41
2022-08-03T05:26:14.615Z,100795.81
2022-08-03T05:28:50.561Z,100791.91
2022-08-03T05:31:20.756Z,100801.50
2022-08-03T05:33:49.652Z,100797.69
2022-08-03T05:36:18.300Z,100804.50
2022-08-03T05:38:47.115Z,100810.72
2022-08-03T05:41:22.229Z,100802.06
2022-08-03T05:43:56.038Z,100805.84
2022-08-03T05:46:24.893Z,100807.41
2022-08-03T05:48:54.009Z,100807.28
2022-08-03T05:51:22.735Z,100815.41
2022-08-03T05:53:51.285Z,100811.66
2022-08-03T05:56:25.160Z,100816.69
2022-08-03T05:58:55.253Z,100819.47
2022-08-03T06:01:24.153Z,100820.81
2022-08-03T06:03:53.754Z,100822.34
2022-08-03T06:06:23.099Z,100825.66
2022-08-03T06:08:52.065Z,100820.13
2022-08-03T06:11:20.596Z,100820.41
2022-08-03T06:13:49.177Z,100828.88
2022-08-03T06:16:19.289Z,100824.19
2022-08-03T06:18:47.912Z,100822.44
2022-08-03T06:21:17.130Z,100824.31
2022-08-03T06:23:54.193Z,100834.72
2022-08-03T06:26:28.911Z,100831.50
2022-08-03T06:28:58.002Z,100835.41
2022-08-03T06:31:33.334Z,100824.88
2022-08-03T06:34:32.872Z,100832.56
2022-08-03T06:37:01.769Z,100826.00
2022-08-03T06:39:31.487Z,100834.56
2022-08-03T06:42:00.175Z,100829.25
2022-08-03T06:44:28.784Z,100835.50
2022-08-03T06:46:58.994Z,100822.91
2022-08-03T06:49:27.847Z,100835.84
2022-08-03T06:52:04.538Z,100836.63
2022-08-03T06:54:37.097Z,100841.34
2022-08-03T06:57:08.359Z,100837.91
2022-08-03T07:00:10.006Z,100832.75
2022-08-03T07:02:28.218Z,100828.06
2022-08-03T07:04:58.648Z,100842.41
2022-08-03T07:07:27.366Z,100837.34
2022-08-03T07:09:57.819Z,100839.84
2022-08-03T07:12:29.455Z,100845.59
2022-08-03T07:15:02.342Z,100845.81
2022-08-03T07:17:36.774Z,100843.75
2022-08-03T07:20:08.691Z,100840.47
2022-08-03T07:22:37.955Z,100844.09
2022-08-03T07:25:08.969Z,100847.63
2022-08-03T07:27:38.474Z,100845.28
2022-08-03T07:30:09.512Z,100848.53
2022-08-03T07:32:49.744Z,100842.09
2022-08-03T07:35:24.795Z,100849.13
2022-08-03T07:37:55.136Z,100839.28
2022-08-03T07:40:25.117Z,100850.03
2022-08-03T07:43:02.402Z,100838.50
2022-08-03T07:45:32.058Z,100844.25
2022-08-03T07:48:02.278Z,100849.69
2022-08-03T07:50:31.172Z,100844.88
2022-08-03T07:52:59.907Z,100846.53
2022-08-03T07:55:28.814Z,100848.16
2022-08-03T07:58:07.657Z,100845.09
2022-08-03T08:00:37.183Z,100848.25
2022-08-03T08:03:07.185Z,100841.75
2022-08-03T08:05:35.952Z,100842.56
2022-08-03T08:08:05.887Z,100849.69
2022-08-03T08:10:35.142Z,100850.22
2022-08-03T08:13:04.182Z,100844.22
2022-08-03T08:15:33.137Z,100845.03
2022-08-03T08:18:03.491Z,100845.13
2022-08-03T08:20:38.145Z,100855.28
2022-08-03T08:23:42.884Z,100853.81
2022-08-03T08:25:58.613Z,100851.41
2022-08-03T08:28:32.907Z,100852.91
2022-08-03T08:31:02.708Z,100849.97
2022-08-03T08:33:48.326Z,100855.22
2022-08-03T08:36:22.831Z,100852.44
2022-08-03T08:38:51.816Z,100849.25
2022-08-03T08:41:20.592Z,100850.50
2022-08-03T08:43:49.241Z,100852.00
2022-08-03T08:46:23.795Z,100856.75
2022-08-03T08:48:55.368Z,100850.25
2022-08-03T08:51:54.847Z,100855.19
2022-08-03T08:54:24.835Z,100859.53
2022-08-03T08:56:59.325Z,100855.53
2022-08-03T08:59:48.346Z,100854.00
2022-08-03T09:02:17.220Z,100861.09
2022-08-03T09:04:48.836Z,100862.22
2022-08-03T09:07:20.545Z,100854.81
2022-08-03T09:10:11.368Z,100862.38
2022-08-03T09:12:42.611Z,100861.97
2022-08-03T09:15:24.550Z,100858.09
2022-08-03T09:17:56.499Z,100858.25
2022-08-03T09:20:28.671Z,100865.66
2022-08-03T09:23:01.466Z,100856.13
2022-08-03T09:25:33.560Z,100851.16
2022-08-03T09:28:52.874Z,100852.00
2022-08-03T09:31:03.156Z,100861.59
2022-08-03T09:33:36.145Z,100858.19
2022-08-03T09:36:05.668Z,100851.53
2022-08-03T09:38:35.893Z,100859.38
2022-08-03T09:41:18.248Z,100847.63
2022-08-03T09:43:48.175Z,100850.97
2022-08-03T09:46:16.869Z,100850.50
2022-08-03T09:48:46.027Z,100841.97
2022-08-03T09:52:31.285Z,100845.34
2022-08-03T09:54:12.651Z,100844.72
2022-08-03T09:56:47.670Z,100842.88
2022-08-03T09:59:27.573Z,100838.78
2022-08-03T10:01:58.095Z,100839.44
2022-08-03T10:04:27.935Z,100839.53
2022-08-03T10:07:06.493Z,100840.44
2022-08-03T10:09:37.556Z,100837.53
2022-08-03T10:12:11.375Z,100830.44
2022-08-03T10:14:41.975Z,100839.09
2022-08-03T10:17:11.244Z,100826.28
2022-08-03T10:19:41.130Z,100837.66
2022-08-03T10:22:15.065Z,100831.94
2022-08-03T10:24:54.773Z,100841.16
2022-08-03T10:27:25.480Z,100831.91
2022-08-03T10:29:57.318Z,100830.25
2022-08-03T10:32:32.669Z,100830.59
2022-08-03T10:35:20.096Z,100833.59
2022-08-03T10:37:57.302Z,100831.44
2022-08-03T10:40:48.627Z,100835.88
2022-08-03T10:43:23.018Z,100825.13
2022-08-03T10:45:53.148Z,100828.47
2022-08-03T10:48:23.211Z,100826.53
2022-08-03T10:50:52.702Z,100819.47
2022-08-03T10:53:37.462Z,100823.72
2022-08-03T10:56:50.403Z,100828.28
2022-08-03T10:59:27.704Z,100827.75
2022-08-03T11:02:00.676Z,100822.94
2022-08-03T11:04:30.878Z,100816.84
2022-08-03T11:07:23.604Z,100818.16
2022-08-03T11:09:54.851Z,100823.84
2022-08-03T11:12:31.081Z,100825.25
2022-08-03T11:15:03.235Z,100825.50
2022-08-03T11:17:33.792Z,100825.50
2022-08-03T11:20:15.899Z,100813.31
2022-08-03T11:22:54.505Z,100817.97
2022-08-03T11:25:54.403Z,100806.19
2022-08-03T11:28:30.615Z,100813.13
2022-08-03T11:31:50.392Z,100806.53
2022-08-03T11:34:19.830Z,100808.66
2022-08-03T11:37:29.929Z,100799.28
2022-08-03T11:40:02.758Z,100801.59
2022-08-03T11:42:47.054Z,100796.22
2022-08-03T11:45:16.254Z,100795.19
2022-08-03T11:47:51.092Z,100786.69
2022-08-03T11:50:21.470Z,100793.69
2022-08-03T11:52:51.777Z,100792.16
2022-08-03T11:55:22.175Z,100789.06
2022-08-03T11:59:10.904Z,100784.97
2022-08-03T12:00:40.638Z,100786.41
2022-08-03T12:03:16.294Z,100784.56
2022-08-03T12:05:51.536Z,100781.31
2022-08-03T12:08:34.072Z,100789.09
2022-08-03T12:11:06.820Z,100783.75
2022-08-03T12:14:44.209Z,100773.28
2022-08-03T12:16:30.558Z,100770.56
2022-08-03T12:19:03.157Z,100767.94
2022-08-03T12:21:32.288Z,100780.88
2022-08-03T12:24:03.454Z,100774.16
2022-08-03T12:26:54.531Z,100775.63
2022-08-03T12:29:29.200Z,100771.22
2022-08-03T12:31:58.402Z,100775.03
2022-08-03T12:34:47.619Z,100769.44
2022-08-03T12:37:28.665Z,100776.78
2022-08-03T12:40:09.763Z,100771.41
2022-08-03T12:42:41.342Z,100764.44
2022-08-03T12:45:24.647Z,100771.25
2022-08-03T12:47:55.627Z,100764.16
2022-08-03T12:50:34.302Z,100758.41
2022-08-03T12:53:07.873Z,100760.88
2022-08-03T12:55:57.954Z,100757.09
2022-08-03T12:58:34.331Z,100758.00
2022-08-03T13:01:10.102Z,100753.44
2022-08-03T13:03:46.045Z,100752.84
2022-08-03T13:06:23.770Z,100742.09
2022-08-03T13:09:05.855Z,100739.91
2022-08-03T13:11:55.479Z,100743.91
2022-08-03T13:14:24.133Z,100742.72
2022-08-03T13:16:52.795Z,100746.88
2022-08-03T13:19:21.367Z,100739.03
2022-08-03T13:21:53.689Z,100746.00
2022-08-03T13:24:33.969Z,100738.19
2022-08-03T13:28:01.908Z,100734.19
2022-08-03T13:29:54.236Z,100737.59
2022-08-03T13:32:24.235Z,100733.88
2022-08-03T13:34:53.027Z,100729.31
2022-08-03T13:37:23.512Z,100731.78
2022-08-03T13:39:59.246Z,100727.44
2022-08-03T13:42:31.580Z,100730.06
2022-08-03T13:45:01.959Z,100727.53
2022-08-03T13:47:30.912Z,100728.09
2022-08-03T13:50:02.457Z,100726.91
2022-08-03T13:52:36.450Z,100719.44
2022-08-03T13:55:08.597Z,100717.50
2022-08-03T13:58:04.906Z,100722.09
2022-08-03T14:00:29.330Z,100722.63
2022-08-03T14:03:06.514Z,100714.25
2022-08-03T14:05:41.145Z,100716.44
2022-08-03T14:08:11.880Z,100716.53
2022-08-03T14:10:43.836Z,100710.00
2022-08-03T14:13:17.698Z,100712.09
2022-08-03T14:15:49.471Z,100713.91
2022-08-03T14:18:28.492Z,100712.19
2022-08-03T14:21:03.392Z,100706.78
2022-08-03T14:23:37.728Z,100711.63
2022-08-03T14:26:07.766Z,100704.34
2022-08-03T14:28:37.194Z,100692.31
2022-08-03T14:31:08.462Z,100702.44
2022-08-03T14:33:55.166Z,100685.88
2022-08-03T14:36:23.863Z,100688.97
2022-08-03T14:38:56.119Z,100684.19
2022-08-03T14:41:27.444Z,100693.06
2022-08-03T14:44:02.132Z,100690.47
2022-08-03T14:46:32.521Z,100687.38
2022-08-03T14:50:30.564Z,100687.19
2022-08-03T14:51:53.329Z,100690.38
2022-08-03T14:54:24.178Z,100684.78
2022-08-03T14:56:53.301Z,100688.66
2022-08-03T14:59:21.887Z,100687.81
2022-08-03T15:02:04.950Z,100685.25
2022-08-03T15:04:35.882Z,100680.50
2022-08-03T15:07:04.698Z,100683.13
2022-08-03T15:09:35.554Z,100687.94
2022-08-03T15:12:05.500Z,100678.19
2022-08-03T15:14:34.952Z,100685.38
2022-08-03T15:17:06.996Z,100686.63
2022-08-03T15:20:00.847Z,100688.97
2022-08-03T15:22:25.008Z,100679.75
2022-08-03T15:24:56.294Z,100676.94
2022-08-03T15:27:24.999Z,100677.16
2022-08-03T15:30:04.859Z,100674.50
2022-08-03T15:32:38.384Z,100673.94
2022-08-03T15:35:07.794Z,100676.41
2022-08-03T15:37:36.456Z,100671.94
2022-08-03T15:40:08.106Z,100672.97
2022-08-03T15:42:36.866Z,100669.78
2022-08-03T15:45:06.442Z,100669.09
2022-08-03T15:47:35.043Z,100669.41
2022-08-03T15:50:09.472Z,100655.16
2022-08-03T15:52:38.485Z,100661.50
2022-08-03T15:55:10.615Z,100659.88
2022-08-03T15:59:11.070Z,100655.72
2022-08-03T16:00:34.023Z,100658.34
2022-08-03T16:03:02.899Z,100657.00
2022-08-03T16:05:31.637Z,100652.97
2022-08-03T16:08:04.082Z,100643.50
2022-08-03T16:10:35.561Z,100642.78
2022-08-03T16:13:04.420Z,100640.84
2022-08-03T16:15:33.301Z,100639.75
2022-08-03T16:18:07.607Z,100638.56
2022-08-03T16:20:36.230Z,100642.41
2022-08-03T16:23:11.427Z,100641.59
2022-08-03T16:25:44.485Z,100644.72
2022-08-03T16:28:18.913Z,100640.38
2022-08-03T16:30:48.342Z,100640.00
2022-08-03T16:33:18.098Z,100637.88
2022-08-03T16:35:49.627Z,100636.19
2022-08-03T16:38:19.554Z,100635.84
2022-08-03T16:40:51.965Z,100637.38
2022-08-03T16:43:23.147Z,100639.94
2022-08-03T16:45:52.801Z,100634.06
2022-08-03T16:48:21.915Z,100635.59
2022-08-03T16:50:50.587Z,100631.75
2022-08-03T16:53:33.721Z,100630.38
2022-08-03T16:56:10.865Z,100626.50
2022-08-03T16:58:42.314Z,100627.88
2022-08-03T17:01:22.477Z,100630.38
2022-08-03T17:04:01.532Z,100632.16
2022-08-03T17:06:34.125Z,100639.78
2022-08-03T17:09:08.699Z,100637.50
2022-08-03T17:11:44.117Z,100635.75
2022-08-03T17:14:21.781Z,100636.56
2022-08-03T17:16:54.540Z,100646.16
2022-08-03T17:19:26.363Z,100640.06
2022-08-03T17:22:04.116Z,100648.69
2022-08-03T17:24:41.016Z,100647.56
2022-08-03T17:28:41.354Z,100654.84
2022-08-03T17:30:12.029Z,100657.34
2022-08-03T17:32:56.545Z,100648.56
2022-08-03T17:35:34.684Z,100655.00
2022-08-03T17:38:11.975Z,100658.41
2022-08-03T17:40:43.099Z,100664.03
2022-08-03T17:44:13.678Z,100661.63
2022-08-03T17:46:10.978Z,100656.34
2022-08-03T17:48:42.256Z,100664.94
2022-08-03T17:51:17.953Z,100668.53
2022-08-03T17:54:05.203Z,100672.97
2022-08-03T17:56:58.245Z,100680.63
2022-08-03T17:59:51.890Z,100677.84
2022-08-03T18:02:54.868Z,100683.94
2022-08-03T18:06:12.713Z,100694.06
2022-08-03T18:08:26.857Z,100689.09
2022-08-03T18:11:15.115Z,100693.88
2022-08-03T18:13:58.183Z,100698.47
2022-08-03T18:16:35.292Z,100693.13
2022-08-03T18:19:13.477Z,100703.72
2022-08-03T18:22:02.844Z,100708.13
2022-08-03T18:24:33.213Z,100707.53
2022-08-03T18:27:03.301Z,100703.53
2022-08-03T18:29:33.291Z,100712.22
2022-08-03T18:32:13.550Z,100713.59
2022-08-03T18:34:53.188Z,100719.31
2022-08-03T18:37:26.211Z,100717.31
2022-08-03T18:39:58.498Z,100718.19
2022-08-03T18:42:28.854Z,100721.38
2022-08-03T18:45:15.010Z,100726.25
2022-08-03T18:48:06.152Z,100726.09
2022-08-03T18:50:49.745Z,100734.16
2022-08-03T18:54:03.049Z,100733.47
2022-08-03T18:56:32.478Z,100734.03
2022-08-03T18:59:10.859Z,100733.50
2022-08-03T19:01:58.026Z,100737.03
2022-08-03T19:04:35.420Z,100745.72
2022-08-03T19:07:08.547Z,100741.88
2022-08-03T19:09:48.152Z,100741.53
2022-08-03T19:12:30.789Z,100738.03
2022-08-03T19:15:12.780Z,100747.03
2022-08-03T19:17:52.730Z,100743.19
2022-08-03T19:20:26.517Z,100744.34
2022-08-03T19:23:00.411Z,100741.19
2022-08-03T19:25:35.124Z,100749.56
2022-08-03T19:28:07.220Z,100744.03
2022-08-03T19:30:39.889Z,100744.53
2022-08-03T19:33:11.458Z,100740.66
2022-08-03T19:35:51.806Z,100746.03
2022-08-03T19:38:27.543Z,100750.50
2022-08-03T19:41:03.244Z,100745.00
2022-08-03T19:43:49.499Z,100751.53
2022-08-03T19:46:30.505Z,100747.47
2022-08-03T19:49:14.595Z,100748.81
2022-08-03T19:52:01.483Z,100744.81
2022-08-03T19:54:52.817Z,100743.44
2022-08-03T19:57:25.765Z,100744.75
2022-08-03T19:59:56.772Z,100740.72
2022-08-03T20:02:29.705Z,100740.38
2022-08-03T20:04:59.988Z,100743.03
2022-08-03T20:07:33.005Z,100745.19
2022-08-03T20:10:05.321Z,100742.34
2022-08-03T20:12:39.243Z,100753.22
2022-08-03T20:15:10.632Z,100747.31
2022-08-03T20:17:55.343Z,100750.34
2022-08-03T20:20:29.857Z,100745.31
2022-08-03T20:23:04.035Z,100749.28
2022-08-03T20:25:48.787Z,100752.16
2022-08-03T20:28:36.171Z,100744.75
2022-08-03T20:31:32.602Z,100752.09
2022-08-03T20:34:06.312Z,100748.06
2022-08-03T20:36:35.060Z,100743.91
2022-08-03T20:39:07.540Z,100742.66
2022-08-03T20:41:37.044Z,100738.66
2022-08-03T20:44:07.077Z,100754.53
2022-08-03T20:46:46.714Z,100748.81
2022-08-03T20:49:25.313Z,100746.63
2022-08-03T20:51:55.320Z,100748.78
2022-08-03T20:54:29.469Z,100744.25
2022-08-03T20:57:04.174Z,100754.44
2022-08-03T20:59:47.671Z,100749.25
2022-08-03T21:02:29.117Z,100761.09
2022-08-03T21:05:03.424Z,100751.53
2022-08-03T21:08:03.703Z,100762.38
2022-08-03T21:10:38.242Z,100764.84
2022-08-03T21:13:18.550Z,100766.28
2022-08-03T21:16:11.893Z,100760.72
2022-08-03T21:18:47.209Z,100765.91
2022-08-03T21:21:20.013Z,100766.44
2022-08-03T21:23:53.858Z,100763.44
2022-08-03T21:26:28.556Z,100767.66
2022-08-03T21:28:58.522Z,100766.28
2022-08-03T21:31:28.094Z,100762.94
2022-08-03T21:33:59.487Z,100758.97
2022-08-03T21:36:32.167Z,100762.63
2022-08-03T21:39:01.964Z,100771.00
2022-08-03T21:41:33.663Z,100762.00
2022-08-03T21:44:05.152Z,100759.34
2022-08-03T21:46:39.313Z,100768.69
2022-08-03T21:50:07.621Z,100767.56
2022-08-03T21:52:06.759Z,100768.94
2022-08-03T21:54:38.550Z,100765.25
2022-08-03T21:57:20.024Z,100765.81
2022-08-03T21:59:56.652Z,100777.16
2022-08-03T22:02:31.518Z,100776.16
2022-08-03T22:05:05.152Z,100774.50
2022-08-03T22:07:35.943Z,100774.34
2022-08-03T22:10:07.727Z,100774.50
2022-08-03T22:12:38.678Z,100768.84
2022-08-03T22:15:11.713Z,100775.31
2022-08-03T22:17:53.655Z,100774.72
2022-08-03T22:20:24.926Z,100768.03
2022-08-03T22:22:57.711Z,100769.22
2022-08-03T22:25:31.572Z,100775.69
2022-08-03T22:28:05.162Z,100770.66
2022-08-03T22:30:34.613Z,100773.31
2022-08-03T22:33:11.723Z,100779.72
2022-08-03T22:35:47.828Z,100776.22
2022-08-03T22:38:18.733Z,100774.22
2022-08-03T22:40:51.157Z,100776.56
2022-08-03T22:43:25.683Z,100778.88
2022-08-03T22:46:10.239Z,100772.34
2022-08-03T22:48:41.955Z,100773.13
2022-08-03T22:51:11.489Z,100771.78
2022-08-03T22:53:41.562Z,100771.38
2022-08-03T22:56:11.027Z,100774.34
2022-08-03T22:58:40.970Z,100780.16
2022-08-03T23:01:13.714Z,100769.09
2022-08-03T23:03:58.693Z,100776.06
2022-08-03T23:06:36.558Z,100774.03
2022-08-03T23:09:09.303Z,100766.47
2022-08-03T23:11:45.533Z,100780.78
2022-08-03T23:14:20.409Z,100768.91
2022-08-03T23:16:51.989Z,100774.19
2022-08-03T23:19:25.133Z,100773.28
2022-08-03T23:22:02.400Z,100773.88
2022-08-03T23:24:36.892Z,100770.16
2022-08-03T23:27:08.263Z,100779.44
2022-08-03T23:29:43.282Z,100771.06
2022-08-03T23:32:13.997Z,100764.91
2022-08-03T23:35:06.091Z,100773.44
2022-08-03T23:38:12.177Z,100768.69
2022-08-03T23:40:30.979Z,100770.97
2022-08-03T23:43:02.169Z,100767.75
2022-08-03T23:45:37.530Z,100769.72
2022-08-03T23:48:06.996Z,100771.88
2022-08-03T23:50:45.727Z,100766.81
2022-08-03T23:53:22.657Z,100767.25
2022-08-03T23:56:13.949Z,100771.22
2022-08-03T23:58:57.916Z,100772.66
